Fowler, Kansas
Current Conditions -  °F | °C
As of 8:19 PM on Saturday 20 Dec 2014 (Local Time) from KDDC Reporting Station
Haze Haze  
Wind Chill: 25°   Ceiling: Unl
Heat Index: 32°   Visibility: 3mi
Dew Point: 30°   Wind: 8mph
Humidity: 92%   Direction: 180°S
Pressure: 30.03"   Gusts: NA
Location:  37.39°N, 100.2°W
Report Text: KDDC 210219Z AUTO 18007KT 3SM BR FEW002 00/M01 A3003 RMK AO2 I1000 T00001011
Loading
Personal Weather Stations






























Interactive Weather Map New forecast layout! Learn more

10-Day Weather Forecast

Advertisements
Track Severe Weather on mobile